sensor_id;sensor_type;location;lat;lon;timestamp;P1;durP1;ratioP1;P2;durP2;ratioP2
58756;SDS011;44527;47.460;19.016;2023-08-21T00:01:27;17.08;;;12.35;;
58756;SDS011;44527;47.460;19.016;2023-08-21T00:04:29;14.68;;;10.60;;
58756;SDS011;44527;47.460;19.016;2023-08-21T00:07:31;14.25;;;12.25;;
58756;SDS011;44527;47.460;19.016;2023-08-21T00:10:36;14.57;;;12.02;;
58756;SDS011;44527;47.460;19.016;2023-08-21T00:13:40;16.65;;;11.32;;
58756;SDS011;44527;47.460;19.016;2023-08-21T00:16:45;12.27;;;10.68;;
58756;SDS011;44527;47.460;19.016;2023-08-21T00:19:47;21.48;;;11.60;;
58756;SDS011;44527;47.460;19.016;2023-08-21T00:22:50;18.08;;;11.02;;
58756;SDS011;44527;47.460;19.016;2023-08-21T00:25:52;15.05;;;11.88;;
58756;SDS011;44527;47.460;19.016;2023-08-21T00:28:56;19.85;;;11.93;;
58756;SDS011;44527;47.460;19.016;2023-08-21T00:32:00;13.52;;;11.20;;
58756;SDS011;44527;47.460;19.016;2023-08-21T00:35:03;16.35;;;10.90;;
58756;SDS011;44527;47.460;19.016;2023-08-21T00:38:06;15.23;;;10.80;;
58756;SDS011;44527;47.460;19.016;2023-08-21T00:41:09;13.68;;;11.68;;
58756;SDS011;44527;47.460;19.016;2023-08-21T00:44:12;13.88;;;11.10;;
58756;SDS011;44527;47.460;19.016;2023-08-21T00:47:15;16.50;;;11.60;;
58756;SDS011;44527;47.460;19.016;2023-08-21T00:50:17;17.62;;;11.00;;
58756;SDS011;44527;47.460;19.016;2023-08-21T00:53:20;15.25;;;10.75;;
58756;SDS011;44527;47.460;19.016;2023-08-21T00:56:23;18.12;;;11.00;;
58756;SDS011;44527;47.460;19.016;2023-08-21T00:59:26;19.65;;;11.00;;
58756;SDS011;44527;47.460;19.016;2023-08-21T01:02:29;17.27;;;10.50;;
58756;SDS011;44527;47.460;19.016;2023-08-21T01:05:32;16.60;;;10.25;;
58756;SDS011;44527;47.460;19.016;2023-08-21T01:15:18;14.15;;;10.35;;
58756;SDS011;44527;47.460;19.016;2023-08-21T01:18:21;16.37;;;10.30;;
58756;SDS011;44527;47.460;19.016;2023-08-21T01:21:24;13.27;;;10.30;;
58756;SDS011;44527;47.460;19.016;2023-08-21T01:24:28;15.00;;;10.55;;
58756;SDS011;44527;47.460;19.016;2023-08-21T01:27:31;13.40;;;9.95;;
58756;SDS011;44527;47.460;19.016;2023-08-21T01:30:35;20.48;;;11.20;;
58756;SDS011;44527;47.460;19.016;2023-08-21T01:33:40;12.32;;;9.65;;
58756;SDS011;44527;47.460;19.016;2023-08-21T01:36:47;14.10;;;10.05;;
58756;SDS011;44527;47.460;19.016;2023-08-21T01:39:49;12.65;;;10.23;;
58756;SDS011;44527;47.460;19.016;2023-08-21T01:42:54;12.50;;;10.45;;
58756;SDS011;44527;47.460;19.016;2023-08-21T01:45:57;13.00;;;10.80;;
58756;SDS011;44527;47.460;19.016;2023-08-21T01:48:59;17.33;;;10.48;;
58756;SDS011;44527;47.460;19.016;2023-08-21T01:52:02;16.42;;;11.10;;
58756;SDS011;44527;47.460;19.016;2023-08-21T01:55:05;20.33;;;12.18;;
58756;SDS011;44527;47.460;19.016;2023-08-21T01:58:09;19.08;;;11.75;;
58756;SDS011;44527;47.460;19.016;2023-08-21T02:01:13;13.55;;;12.00;;
58756;SDS011;44527;47.460;19.016;2023-08-21T02:04:16;14.05;;;11.38;;
58756;SDS011;44527;47.460;19.016;2023-08-21T02:07:18;15.40;;;11.23;;
58756;SDS011;44527;47.460;19.016;2023-08-21T02:10:23;18.33;;;12.27;;
58756;SDS011;44527;47.460;19.016;2023-08-21T02:13:26;19.83;;;11.73;;
58756;SDS011;44527;47.460;19.016;2023-08-21T02:16:29;15.82;;;11.05;;
58756;SDS011;44527;47.460;19.016;2023-08-21T02:19:32;13.52;;;10.43;;
58756;SDS011;44527;47.460;19.016;2023-08-21T02:22:34;20.58;;;10.82;;
58756;SDS011;44527;47.460;19.016;2023-08-21T02:25:37;14.10;;;10.95;;
58756;SDS011;44527;47.460;19.016;2023-08-21T02:28:40;15.18;;;11.45;;
58756;SDS011;44527;47.460;19.016;2023-08-21T02:31:42;16.35;;;10.52;;
58756;SDS011;44527;47.460;19.016;2023-08-21T02:34:45;14.85;;;10.55;;
58756;SDS011;44527;47.460;19.016;2023-08-21T02:37:49;18.45;;;10.63;;
58756;SDS011;44527;47.460;19.016;2023-08-21T02:40:52;14.95;;;11.32;;
58756;SDS011;44527;47.460;19.016;2023-08-21T02:43:54;14.55;;;12.02;;
58756;SDS011;44527;47.460;19.016;2023-08-21T02:46:57;15.90;;;11.52;;
58756;SDS011;44527;47.460;19.016;2023-08-21T02:49:59;13.62;;;10.82;;
58756;SDS011;44527;47.460;19.016;2023-08-21T02:53:02;19.27;;;11.45;;
58756;SDS011;44527;47.460;19.016;2023-08-21T02:56:05;13.38;;;10.95;;
58756;SDS011;44527;47.460;19.016;2023-08-21T02:59:07;16.27;;;11.70;;
58756;SDS011;44527;47.460;19.016;2023-08-21T03:02:10;14.68;;;11.18;;
58756;SDS011;44527;47.460;19.016;2023-08-21T03:05:13;17.17;;;11.73;;
58756;SDS011;44527;47.460;19.016;2023-08-21T03:08:16;17.60;;;12.63;;
58756;SDS011;44527;47.460;19.016;2023-08-21T03:11:19;18.37;;;12.37;;
58756;SDS011;44527;47.460;19.016;2023-08-21T03:14:21;14.95;;;11.50;;
58756;SDS011;44527;47.460;19.016;2023-08-21T03:17:24;16.17;;;12.13;;
58756;SDS011;44527;47.460;19.016;2023-08-21T03:20:27;17.75;;;12.85;;
58756;SDS011;44527;47.460;19.016;2023-08-21T03:23:30;15.82;;;11.85;;
58756;SDS011;44527;47.460;19.016;2023-08-21T03:26:33;15.48;;;12.13;;
58756;SDS011;44527;47.460;19.016;2023-08-21T03:29:36;16.42;;;12.35;;
58756;SDS011;44527;47.460;19.016;2023-08-21T03:32:38;22.17;;;12.35;;
58756;SDS011;44527;47.460;19.016;2023-08-21T03:35:41;17.37;;;12.30;;
58756;SDS011;44527;47.460;19.016;2023-08-21T03:38:44;20.60;;;11.93;;
58756;SDS011;44527;47.460;19.016;2023-08-21T03:41:46;14.50;;;11.70;;
58756;SDS011;44527;47.460;19.016;2023-08-21T03:44:50;16.40;;;11.82;;
58756;SDS011;44527;47.460;19.016;2023-08-21T03:47:52;14.80;;;11.93;;
58756;SDS011;44527;47.460;19.016;2023-08-21T03:50:55;19.27;;;13.00;;
58756;SDS011;44527;47.460;19.016;2023-08-21T03:53:57;18.35;;;11.80;;
58756;SDS011;44527;47.460;19.016;2023-08-21T03:57:00;15.85;;;12.15;;
58756;SDS011;44527;47.460;19.016;2023-08-21T04:00:03;16.75;;;11.75;;
58756;SDS011;44527;47.460;19.016;2023-08-21T04:03:15;18.27;;;12.05;;
58756;SDS011;44527;47.460;19.016;2023-08-21T04:06:20;14.57;;;11.60;;
58756;SDS011;44527;47.460;19.016;2023-08-21T04:09:22;17.27;;;10.80;;
58756;SDS011;44527;47.460;19.016;2023-08-21T04:12:25;18.40;;;11.43;;
58756;SDS011;44527;47.460;19.016;2023-08-21T04:15:27;17.65;;;11.43;;
58756;SDS011;44527;47.460;19.016;2023-08-21T04:18:31;17.73;;;11.23;;
58756;SDS011;44527;47.460;19.016;2023-08-21T04:21:42;13.07;;;10.88;;
58756;SDS011;44527;47.460;19.016;2023-08-21T04:24:45;18.73;;;11.80;;
58756;SDS011;44527;47.460;19.016;2023-08-21T04:27:47;14.63;;;11.25;;
58756;SDS011;44527;47.460;19.016;2023-08-21T04:30:50;14.50;;;10.32;;
58756;SDS011;44527;47.460;19.016;2023-08-21T04:33:52;16.85;;;11.52;;
58756;SDS011;44527;47.460;19.016;2023-08-21T04:36:55;15.57;;;10.57;;
58756;SDS011;44527;47.460;19.016;2023-08-21T04:39:58;14.82;;;10.45;;
58756;SDS011;44527;47.460;19.016;2023-08-21T04:43:00;17.70;;;11.20;;
58756;SDS011;44527;47.460;19.016;2023-08-21T04:46:03;12.37;;;10.30;;
58756;SDS011;44527;47.460;19.016;2023-08-21T04:49:08;22.30;;;10.38;;
58756;SDS011;44527;47.460;19.016;2023-08-21T04:52:12;15.07;;;9.93;;
58756;SDS011;44527;47.460;19.016;2023-08-21T04:55:15;13.70;;;10.35;;
58756;SDS011;44527;47.460;19.016;2023-08-21T04:58:18;18.33;;;10.82;;
58756;SDS011;44527;47.460;19.016;2023-08-21T05:01:21;16.52;;;10.50;;
58756;SDS011;44527;47.460;19.016;2023-08-21T05:04:24;15.57;;;10.20;;
58756;SDS011;44527;47.460;19.016;2023-08-21T05:07:27;14.43;;;10.38;;
58756;SDS011;44527;47.460;19.016;2023-08-21T05:10:31;13.90;;;9.75;;
58756;SDS011;44527;47.460;19.016;2023-08-21T05:13:34;17.70;;;9.82;;
58756;SDS011;44527;47.460;19.016;2023-08-21T05:16:37;12.93;;;9.13;;
58756;SDS011;44527;47.460;19.016;2023-08-21T05:19:39;13.30;;;8.82;;
58756;SDS011;44527;47.460;19.016;2023-08-21T05:22:41;13.00;;;8.65;;
58756;SDS011;44527;47.460;19.016;2023-08-21T05:25:44;10.50;;;7.90;;
58756;SDS011;44527;47.460;19.016;2023-08-21T05:28:47;9.50;;;7.18;;
58756;SDS011;44527;47.460;19.016;2023-08-21T05:31:50;12.65;;;7.78;;
58756;SDS011;44527;47.460;19.016;2023-08-21T05:34:52;14.30;;;7.55;;
58756;SDS011;44527;47.460;19.016;2023-08-21T05:37:56;9.18;;;7.82;;
58756;SDS011;44527;47.460;19.016;2023-08-21T05:40:59;14.77;;;7.07;;
58756;SDS011;44527;47.460;19.016;2023-08-21T05:44:04;13.48;;;6.87;;
58756;SDS011;44527;47.460;19.016;2023-08-21T05:47:07;12.80;;;7.00;;
58756;SDS011;44527;47.460;19.016;2023-08-21T05:50:10;8.38;;;5.97;;
58756;SDS011;44527;47.460;19.016;2023-08-21T05:53:12;9.45;;;7.03;;
58756;SDS011;44527;47.460;19.016;2023-08-21T05:56:16;10.27;;;6.50;;
58756;SDS011;44527;47.460;19.016;2023-08-21T05:59:31;12.73;;;6.65;;
58756;SDS011;44527;47.460;19.016;2023-08-21T06:02:35;10.70;;;5.87;;
58756;SDS011;44527;47.460;19.016;2023-08-21T06:05:38;10.18;;;6.25;;
58756;SDS011;44527;47.460;19.016;2023-08-21T06:08:41;8.93;;;6.03;;
58756;SDS011;44527;47.460;19.016;2023-08-21T06:11:44;13.57;;;5.90;;
58756;SDS011;44527;47.460;19.016;2023-08-21T06:14:47;8.20;;;5.62;;
58756;SDS011;44527;47.460;19.016;2023-08-21T06:17:50;8.82;;;6.00;;
58756;SDS011;44527;47.460;19.016;2023-08-21T06:20:54;9.88;;;5.93;;
58756;SDS011;44527;47.460;19.016;2023-08-21T06:23:59;10.57;;;5.78;;
58756;SDS011;44527;47.460;19.016;2023-08-21T06:27:03;11.43;;;5.72;;
58756;SDS011;44527;47.460;19.016;2023-08-21T06:30:09;12.60;;;6.68;;
58756;SDS011;44527;47.460;19.016;2023-08-21T06:33:12;18.73;;;9.88;;
58756;SDS011;44527;47.460;19.016;2023-08-21T06:36:14;11.55;;;6.00;;
58756;SDS011;44527;47.460;19.016;2023-08-21T06:39:17;6.93;;;5.30;;
58756;SDS011;44527;47.460;19.016;2023-08-21T06:42:19;12.55;;;5.45;;
58756;SDS011;44527;47.460;19.016;2023-08-21T06:45:22;6.90;;;4.95;;
58756;SDS011;44527;47.460;19.016;2023-08-21T06:48:26;10.52;;;5.40;;
58756;SDS011;44527;47.460;19.016;2023-08-21T06:51:29;7.47;;;4.93;;
58756;SDS011;44527;47.460;19.016;2023-08-21T06:54:33;8.40;;;5.32;;
58756;SDS011;44527;47.460;19.016;2023-08-21T06:57:35;10.52;;;5.07;;
58756;SDS011;44527;47.460;19.016;2023-08-21T07:00:40;10.38;;;5.62;;
58756;SDS011;44527;47.460;19.016;2023-08-21T07:03:43;8.45;;;5.43;;
58756;SDS011;44527;47.460;19.016;2023-08-21T07:06:46;9.68;;;5.75;;
58756;SDS011;44527;47.460;19.016;2023-08-21T07:09:49;8.57;;;5.05;;
58756;SDS011;44527;47.460;19.016;2023-08-21T07:12:53;7.90;;;5.10;;
58756;SDS011;44527;47.460;19.016;2023-08-21T07:15:55;6.90;;;5.53;;
58756;SDS011;44527;47.460;19.016;2023-08-21T07:18:58;9.63;;;5.57;;
58756;SDS011;44527;47.460;19.016;2023-08-21T07:22:00;6.97;;;5.20;;
58756;SDS011;44527;47.460;19.016;2023-08-21T07:25:04;9.75;;;5.37;;
58756;SDS011;44527;47.460;19.016;2023-08-21T07:28:06;11.20;;;5.50;;
58756;SDS011;44527;47.460;19.016;2023-08-21T07:31:09;9.40;;;5.00;;
58756;SDS011;44527;47.460;19.016;2023-08-21T07:34:12;10.60;;;5.40;;
58756;SDS011;44527;47.460;19.016;2023-08-21T07:37:15;10.30;;;5.57;;
58756;SDS011;44527;47.460;19.016;2023-08-21T07:40:17;6.65;;;5.72;;
58756;SDS011;44527;47.460;19.016;2023-08-21T07:43:20;7.03;;;5.90;;
58756;SDS011;44527;47.460;19.016;2023-08-21T07:46:22;13.00;;;6.32;;
58756;SDS011;44527;47.460;19.016;2023-08-21T07:49:28;11.55;;;6.35;;
58756;SDS011;44527;47.460;19.016;2023-08-21T07:52:30;11.77;;;6.30;;
58756;SDS011;44527;47.460;19.016;2023-08-21T07:55:36;7.60;;;5.90;;
